Data for 08/11/2006

Time Sea-Level Adjusted Pressure Absolute Pressure Temperature Relative Humidity Dew Point   
(mb) (inHg) (mb) (inHg) (C) (F) (%) (C) (F)
00:05 1014 29.94 844 24.92 21.9 71.5 21 -1.1 30.1
00:10 1014 29.94 844 24.92 21.5 70.7 22 -0.8 30.6
00:15 1014 29.94 844 24.92 21.3 70.3 22 -1.1 30
00:20 1014 29.94 844 24.92 20.8 69.4 22 -1.2 29.8
00:25 1014 29.94 844 24.92 20.7 69.2 24 -0.5 31.1
00:30 1014 29.94 844 24.92 20.4 68.6 25 -0.4 31.3
00:35 1014 29.94 844 24.92 20.7 69.2 25 0.3 32.6
00:40 1014 29.94 844 24.92 21.1 70 22 -1 30.2
00:45 1014 29.94 844 24.92 21 69.8 22 -1.1 30.1
00:50 1014 29.94 844 24.92 20.6 69.1 23 -1.2 29.8
00:55 1014 29.94 843 24.89 20.4 68.8 24 -0.9 30.3
01:00 1014 29.94 843 24.89 20.3 68.5 25 -0.4 31.2
01:05 1014 29.94 843 24.89 20.2 68.4 22 -1.7 28.9
01:10 1014 29.94 843 24.89 20.5 68.9 25 0.2 32.4
01:15 1014 29.94 843 24.89 20.2 68.4 24 -1 30.2
01:20 1014 29.94 843 24.89 20.2 68.4 24 -0.8 30.6
01:25 1014 29.94 843 24.89 20 68 24 -0.9 30.3
01:30 1014 29.94 843 24.89 20.1 68.1 24 -0.8 30.5
01:35 1014 29.94 843 24.89 20.3 68.6 23 -1.1 30
01:40 1014 29.94 843 24.89 20.6 69.2 23 -0.9 30.3
01:45 1014 29.94 844 24.92 21.5 70.6 21 -1.9 28.6
01:50 1015 29.97 844 24.92 22 71.7 21 -1.1 30.1
01:55 1016 30 845 24.95 21.8 71.2 22 -0.6 30.8
02:00 1016 30 845 24.95 21.5 70.7 24 0.1 32.2
02:05 1016 30 845 24.95 21 69.7 24 0.1 32.1
02:10 1016 30 845 24.95 21.1 69.9 24 -0 31.9
02:15 1016 30 845 24.95 21.3 70.4 25 0.6 33
02:20 1016 30 845 24.95 21.3 70.3 26 1.4 34.6
02:25 1017 30.03 846 24.98 21.1 70 27 1.7 35.1
02:30 1017 30.03 846 24.98 21.2 70.1 27 1.8 35.2
02:35 1017 30.03 846 24.98 20.8 69.4 28 2 35.6
02:40 1017 30.03 846 24.98 20.2 68.3 29 1.7 35.1
02:45 1017 30.03 846 24.98 20.1 68.1 29 1.5 34.7
02:50 1016 30 846 24.98 20 68 30 1.9 35.5
02:55 1016 30 845 24.95 19.9 67.9 30 2 35.5
03:00 1015 29.97 844 24.92 20 67.9 30 1.8 35.3
03:05 1015 29.97 844 24.92 20.1 68.2 29 1.7 35.1
03:10 1015 29.97 845 24.95 20.3 68.5 30 2.2 36
03:15 1015 29.97 845 24.95 19.8 67.6 31 2.5 36.6
03:20 1015 29.97 845 24.95 19.4 67 31 2.1 35.8
03:25 1016 30 845 24.95 19.5 67 31 2.2 36
03:30 1015 29.97 845 24.95 19.6 67.3 30 1.7 35.1
03:35 1015 29.97 844 24.92 19.8 67.7 30 2 35.5
03:40 1015 29.97 844 24.92 19.7 67.5 32 2.9 37.3
03:45 1015 29.97 844 24.92 19.7 67.4 31 2.3 36.2
03:50 1015 29.97 844 24.92 19.5 67.1 31 2.3 36.1
03:55 1015 29.97 844 24.92 19.5 67.1 30 1.7 35.1
04:00 1015 29.97 844 24.92 19.2 66.6 30 1.6 34.8
04:05 1015 29.97 844 24.92 19.1 66.3 37 4.3 39.7
04:10 1015 29.97 844 24.92 18.7 65.7 32 1.7 35.1
04:15 1015 29.97 844 24.92 18.3 65 38 4 39.2
04:20 1015 29.97 844 24.92 18.3 65 33 1.9 35.4
04:25 1015 29.97 844 24.92 18 64.3 35 2.4 36.2
04:30 1015 29.97 844 24.92 17.4 63.3 35 1.8 35.3
04:35 1015 29.97 844 24.92 17.3 63.2 37 2.5 36.5
04:40 1015 29.97 845 24.95 17.9 64.2 32 1.3 34.3
04:45 1015 29.97 845 24.95 18.1 64.6 34 1.9 35.5
04:50 1015 29.97 845 24.95 17.7 63.8 39 3.8 38.9
04:55 1015 29.97 845 24.95 17.6 63.6 34 1.7 35
05:00 1015 29.97 845 24.95 17.6 63.6 38 3.3 37.9
05:05 1015 29.97 845 24.95 17.8 64 35 2.2 35.9
05:10 1016 30 845 24.95 17.7 63.9 34 1.8 35.2
05:15 1016 30 845 24.95 17.7 63.8 35 1.9 35.5
05:20 1016 30 845 24.95 17.5 63.6 32 0.9 33.6
05:25 1016 30 845 24.95 18.1 64.6 33 1.7 35
05:30 1016 30 845 24.95 17.8 64 35 2.2 35.9
05:35 1016 30 845 24.95 17.6 63.7 35 1.9 35.5
05:40 1016 30 845 24.95 17.6 63.7 35 2.3 36.1
05:45 1016 30 845 24.95 17.4 63.2 38 2.9 37.3
05:50 1016 30 845 24.95 16.9 62.4 37 2.2 36
05:55 1016 30 845 24.95 16.6 61.8 36 1.6 34.9
06:00 1016 30 845 24.95 16.6 61.9 37 2 35.7
06:05 1016 30 845 24.95 16.1 61.1 38 2 35.6
06:10 1016 30 845 24.95 15.2 59.3 44 3.2 37.7
06:15 1016 30 846 24.98 14.5 58.2 46 3.2 37.8
06:20 1017 30.03 846 24.98 14.4 57.9 47 3.4 38.1
06:25 1016 30 846 24.98 14.4 57.9 47 3.4 38.1
06:30 1017 30.03 846 24.98 14.4 57.9 49 3.8 38.8
06:35 1017 30.03 846 24.98 14.4 57.9 49 4 39.1
06:40 1017 30.03 846 24.98 14.4 57.9 51 4.4 39.9
06:45 1017 30.03 846 24.98 14.6 58.2 50 4.4 39.9
06:50 1017 30.03 846 24.98 14.6 58.2 51 4.7 40.4
06:55 1017 30.03 846 24.98 14.4 57.9 53 4.9 40.8
07:00 1017 30.03 846 24.98 14.3 57.8 53 5.1 41.1
07:05 1017 30.03 846 24.98 14.4 58 53 5.2 41.3
07:10 1017 30.03 846 24.98 14.8 58.6 53 5.5 41.9
07:15 1017 30.03 846 24.98 15.1 59.1 52 5.5 41.9
07:20 1017 30.03 846 24.98 15.3 59.6 52 5.5 42
07:25 1017 30.03 846 24.98 15.4 59.8 52 5.6 42.1
07:30 1017 30.03 846 24.98 15.6 60 51 5.7 42.2
07:35 1017 30.03 846 24.98 15.7 60.2 51 5.8 42.4
07:40 1017 30.03 846 24.98 15.9 60.7 52 6.2 43.1
07:45 1017 30.03 846 24.98 16.3 61.4 50 5.8 42.5
07:50 1017 30.03 846 24.98 16.9 62.4 54 7.5 45.6
07:55 1017 30.03 846 24.98 17.2 63 49 6.5 43.7
08:00 1017 30.03 846 24.98 17.3 63.1 57 8.7 47.7
08:05 1017 30.03 846 24.98 17.6 63.7 50 7.2 44.9
08:10 1017 30.03 846 24.98 18 64.3 46 6.4 43.6
08:15 1017 30.03 846 24.98 18.3 64.9 48 7.2 45
08:20 1017 30.03 846 24.98 18.3 64.9 45 6.3 43.4
08:25 1017 30.03 846 24.98 18.8 65.8 44 6.4 43.5
08:30 1017 30.03 846 24.98 19.3 66.7 43 6.7 44
08:35 1017 30.03 846 24.98 19.4 67 40 5.8 42.4
08:40 1017 30.03 846 24.98 19.6 67.2 39 5.5 41.9
08:45 1017 30.03 846 24.98 19.4 67 42 6.3 43.3
08:50 1017 30.03 846 24.98 20 68.1 39 5.9 42.6
08:55 1017 30.03 846 24.98 20.6 69.1 39 6.4 43.5
09:00 1017 30.03 846 24.98 20.7 69.3 37 5.7 42.3
09:05 1017 30.03 846 24.98 20.6 69 39 6.3 43.4
09:10 1017 30.03 846 24.98 20.6 69 40 6.6 43.8
09:15 1017 30.03 847 25.01 20.4 68.7 40 6.5 43.8
09:20 1017 30.03 846 24.98 20 68 42 6.9 44.5
09:25 1017 30.03 846 24.98 20.2 68.3 41 6.9 44.3
09:30 1017 30.03 846 24.98 20.5 68.9 41 6.9 44.5
09:35 1017 30.03 846 24.98 20.5 69 40 6.7 44.1
09:40 1017 30.03 846 24.98 20.4 68.6 40 6.5 43.7
09:45 1017 30.03 846 24.98 20.6 69 39 6.5 43.7
09:50 1017 30.03 846 24.98 20.8 69.5 38 6 42.8
09:55 1017 30.03 846 24.98 21.3 70.3 38 6.5 43.7
10:00 1017 30.03 846 24.98 21.3 70.3 37 6.3 43.3
10:05 1017 30.03 846 24.98 21.3 70.4 37 6.4 43.4
10:10 1017 30.03 846 24.98 21.2 70.2 39 6.9 44.4
10:15 1017 30.03 846 24.98 21.3 70.3 39 7.1 44.7
10:20 1017 30.03 846 24.98 21.5 70.7 38 6.8 44.2
10:25 1017 30.03 846 24.98 21.6 70.8 38 6.9 44.4
10:30 1017 30.03 846 24.98 22 71.5 36 6.3 43.4
10:35 1017 30.03 846 24.98 22 71.7 36 6.4 43.6
10:40 1017 30.03 846 24.98 21.5 70.8 38 6.6 44
10:45 1017 30.03 846 24.98 21.9 71.4 36 6.4 43.5
10:50 1017 30.03 846 24.98 22.3 72.2 36 6.6 43.9
10:55 1017 30.03 846 24.98 22.5 72.5 34 6.1 42.9
11:00 1017 30.03 846 24.98 22.8 73 33 6.1 42.9
11:05 1017 30.03 846 24.98 23 73.3 33 5.9 42.5
11:10 1017 30.03 846 24.98 23.1 73.6 32 5.8 42.4
11:15 1017 30.03 846 24.98 23.1 73.6 32 5.9 42.7
11:20 1017 30.03 846 24.98 23.3 73.9 32 5.9 42.6
11:25 1017 30.03 846 24.98 23.5 74.3 31 5.8 42.4
11:30 1017 30.03 846 24.98 23.2 73.8 33 6.3 43.3
11:35 1017 30.03 846 24.98 22.9 73.3 34 6.3 43.3
11:40 1017 30.03 846 24.98 22.8 73 33 6.1 42.9
11:45 1017 30.03 846 24.98 23.3 74 31 5.4 41.7
11:50 1016 30 846 24.98 24.4 75.8 30 5.9 42.7
11:55 1016 30 846 24.98 24.6 76.3 30 6.2 43.2
12:00 1016 30 846 24.98 24.5 76 30 6.1 43
12:05 1016 30 846 24.98 24.4 76 29 5.5 42
12:10 1016 30 845 24.95 24.3 75.7 31 6.1 43
12:15 1016 30 845 24.95 24.7 76.4 29 5.7 42.3
12:20 1016 30 845 24.95 24.8 76.7 29 5.8 42.4
12:25 1016 30 845 24.95 25.1 77.2 28 5.8 42.4
12:30 1016 30 845 24.95 24.7 76.4 29 5.6 42.2
12:35 1016 30 845 24.95 24.8 76.7 28 5.4 41.8
12:40 1016 30 845 24.95 24.5 76.1 29 5.6 42.1
12:45 1016 30 845 24.95 25.2 77.3 28 5.5 41.9
12:50 1016 30 845 24.95 25.7 78.2 28 6 42.9
12:55 1016 30 845 24.95 25.9 78.6 28 6.2 43.1
13:00 1016 30 845 24.95 25.5 78 28 5.9 42.6
13:05 1016 30 845 24.95 24.7 76.5 29 5.9 42.5
13:10 1016 30 845 24.95 25.7 78.2 26 5 40.9
13:15 1016 30 845 24.95 25.9 78.7 25 4.8 40.6
13:20 1016 30 845 24.95 26 78.9 26 5.5 41.9
13:25 1016 30 845 24.95 26.5 79.8 25 5.1 41.3
13:30 1016 30 845 24.95 26.1 79.1 26 5.5 42
13:35 1016 30 845 24.95 26 78.7 26 5.3 41.5
13:40 1016 30 845 24.95 26.4 79.6 25 5.1 41.2
13:45 1016 30 845 24.95 26.5 79.7 24 4.5 40
13:50 1016 30 845 24.95 26.6 79.9 23 4.3 39.7
13:55 1016 30 845 24.95 26.9 80.4 24 5 41
14:00 1016 30 845 24.95 27.1 80.8 22 3.9 39
14:05 1016 30 845 24.95 27.2 81 22 4.3 39.7
14:10 1015 29.97 845 24.95 27.4 81.4 23 4.6 40.2
14:15 1015 29.97 845 24.95 26.6 79.9 23 3.9 39
14:20 1015 29.97 845 24.95 27 80.6 22 4.1 39.3
14:25 1015 29.97 844 24.92 26.8 80.3 23 4.1 39.4
14:30 1015 29.97 844 24.92 27.4 81.2 22 3.8 38.8
14:35 1015 29.97 844 24.92 27.3 81.1 23 4.9 40.8
14:40 1015 29.97 844 24.92 27.2 80.9 23 4.3 39.8
14:45 1015 29.97 844 24.92 27.4 81.4 20 3.1 37.6
14:50 1015 29.97 844 24.92 27.6 81.6 22 4 39.3
14:55 1015 29.97 844 24.92 27.3 81.1 21 3.5 38.3
15:00 1015 29.97 844 24.92 26.7 80.1 21 3 37.4
15:05 1015 29.97 844 24.92 27.2 81 21 3.1 37.5
15:10 1015 29.97 844 24.92 27.6 81.6 21 3.3 38
15:15 1015 29.97 844 24.92 28 82.5 21 4.1 39.3
15:20 1015 29.97 844 24.92 28 82.3 19 2.7 36.9
15:25 1014 29.94 844 24.92 27 80.6 21 3.3 37.9
15:30 1015 29.97 844 24.92 26.4 79.5 23 3.7 38.6
15:35 1015 29.97 844 24.92 26.4 79.5 22 3.6 38.4
15:40 1015 29.97 844 24.92 26.4 79.5 22 3.2 37.8
15:45 1014 29.94 844 24.92 26.1 78.9 23 3.5 38.2
15:50 1015 29.97 844 24.92 26.1 78.9 22 2.9 37.2
15:55 1015 29.97 844 24.92 26 78.9 23 3.8 38.8
16:00 1015 29.97 844 24.92 25.8 78.4 23 3.2 37.8
16:05 1015 29.97 844 24.92 25.7 78.3 23 3.3 37.9
16:10 1015 29.97 844 24.92 25.7 78.2 23 3.3 38
16:15 1015 29.97 844 24.92 25.4 77.8 24 3.4 38.2
16:20 1015 29.97 844 24.92 25.3 77.6 23 2.9 37.3
16:25 1015 29.97 844 24.92 25.2 77.3 18 -0.7 30.8
16:30 1014 29.94 844 24.92 25.2 77.3 16 -2.2 28
16:35 1014 29.94 844 24.92 25.5 77.9 18 0 32
16:40 1014 29.94 844 24.92 25.3 77.5 20 1 33.8
16:45 1014 29.94 844 24.92 25.1 77.1 21 1.5 34.7
16:50 1015 29.97 844 24.92 24.9 76.8 23 2.5 36.5
16:55 1015 29.97 844 24.92 24.7 76.5 24 3 37.4
17:00 1015 29.97 844 24.92 24.6 76.3 24 3.2 37.7
17:05 1015 29.97 844 24.92 25 76.9 23 2.7 36.8
17:10 1015 29.97 844 24.92 25 77.1 22 2.1 35.8
17:15 1015 29.97 844 24.92 24.9 76.8 22 2.3 36.1
17:20 1015 29.97 844 24.92 25.2 77.3 22 2.3 36.1
17:25 1014 29.94 844 24.92 25.3 77.5 24 3.2 37.8
17:30 1014 29.94 844 24.92 25.2 77.4 21 1.7 35.1
17:35 1014 29.94 843 24.89 25.2 77.3 22 2.1 35.7
17:40 1014 29.94 843 24.89 25.4 77.7 21 1.7 35.1
17:45 1014 29.94 843 24.89 25 77 24 3.1 37.6
17:50 1014 29.94 843 24.89 24.8 76.7 23 2.4 36.3
17:55 1014 29.94 844 24.92 24.8 76.6 23 2.4 36.4
18:00 1014 29.94 844 24.92 24.8 76.7 24 3.1 37.6
18:05 1015 29.97 844 24.92 24.8 76.6 24 3.2 37.8
18:10 1014 29.94 844 24.92 24.6 76.4 22 1.9 35.4
18:15 1014 29.94 843 24.89 24.4 75.9 23 2.2 35.9
18:20 1014 29.94 843 24.89 24.1 75.4 24 2.3 36.1
18:25 1014 29.94 843 24.89 24.1 75.3 23 1.9 35.4
18:30 1014 29.94 843 24.89 24.2 75.6 23 2.2 35.9
18:35 1014 29.94 843 24.89 24.1 75.4 23 2.2 35.9
18:40 1014 29.94 844 24.92 24 75.2 24 2.3 36.2
18:45 1014 29.94 844 24.92 23.9 75.1 25 3 37.4
18:50 1014 29.94 844 24.92 23.4 74.2 27 3.8 38.8
18:55 1014 29.94 843 24.89 23 73.4 28 3.5 38.4
19:00 1014 29.94 843 24.89 23.1 73.6 26 3 37.4
19:05 1014 29.94 843 24.89 23.3 73.9 27 3.3 37.9
19:10 1014 29.94 843 24.89 23.3 73.9 26 3.2 37.7
19:15 1014 29.94 843 24.89 23.2 73.8 27 3.4 38.1
19:20 1014 29.94 843 24.89 23 73.5 28 3.8 38.8
19:25 1014 29.94 843 24.89 23 73.3 28 3.7 38.6
19:30 1014 29.94 843 24.89 22.8 73 29 4.1 39.3
19:35 1014 29.94 843 24.89 22.8 73 28 3.5 38.3
19:40 1014 29.94 843 24.89 22.8 73 32 5.5 41.9
19:45 1014 29.94 843 24.89 22.4 72.4 31 4.5 40.2
19:50 1014 29.94 843 24.89 22.2 71.9 31 4.4 39.9
19:55 1014 29.94 843 24.89 22.4 72.3 29 3.5 38.3
20:00 1014 29.94 843 24.89 22.5 72.4 28 3.2 37.8
20:05 1014 29.94 843 24.89 22.4 72.4 28 3.2 37.8
20:10 1014 29.94 843 24.89 22.2 71.9 30 3.8 38.9
20:15 1014 29.94 843 24.89 22 71.5 28 3 37.4
20:20 1014 29.94 843 24.89 22.4 72.3 26 2 35.6
20:25 1014 29.94 843 24.89 22.6 72.7 26 2.6 36.6
20:30 1014 29.94 843 24.89 22.4 72.3 27 2.5 36.5
20:35 1014 29.94 843 24.89 22.2 72 27 2.7 36.8
20:40 1014 29.94 843 24.89 21.8 71.2 29 3.1 37.5
20:45 1014 29.94 843 24.89 21.6 71 29 3.1 37.6
20:50 1014 29.94 844 24.92 21.5 70.7 33 4.9 40.8
20:55 1014 29.94 843 24.89 21.2 70.1 30 3.2 37.8
21:00 1014 29.94 843 24.89 21.1 70 32 3.9 39.1
21:05 1014 29.94 843 24.89 21.5 70.7 32 4.2 39.5
21:10 1014 29.94 843 24.89 21.6 71 28 2.5 36.6
21:15 1014 29.94 843 24.89 21.7 71 31 4.2 39.6
21:20 1014 29.94 844 24.92 21.5 70.6 30 3.5 38.2
21:25 1014 29.94 844 24.92 20.9 69.6 36 5.3 41.6
21:30 1014 29.94 844 24.92 20.6 69.1 33 4 39.3
21:35 1014 29.94 843 24.89 20.2 68.3 34 4.1 39.4
21:40 1014 29.94 843 24.89 19.7 67.5 38 5 41
21:45 1014 29.94 843 24.89 19.1 66.3 41 5.5 41.9
21:50 1014 29.94 843 24.89 18.9 65.9 42 5.8 42.4
21:55 1014 29.94 843 24.89 18.9 66 41 5.4 41.7
22:00 1014 29.94 843 24.89 19.1 66.3 43 6.2 43.1
22:05 1014 29.94 843 24.89 19.4 66.8 40 5.6 42.1
22:10 1014 29.94 843 24.89 19.5 67 39 5.1 41.3
22:15 1014 29.94 843 24.89 19.4 67 39 5.4 41.7
22:20 1014 29.94 843 24.89 19 66.2 41 5.7 42.2
22:25 1014 29.94 843 24.89 18.7 65.7 41 5.4 41.8
22:30 1014 29.94 843 24.89 18.7 65.7 42 5.7 42.3
22:35 1014 29.94 844 24.92 18.8 65.9 39 4.6 40.2
22:40 1014 29.94 844 24.92 19.2 66.5 35 3.4 38.1
22:45 1014 29.94 844 24.92 19.6 67.3 38 5.1 41.2
22:50 1014 29.94 844 24.92 19.6 67.3 37 4.7 40.5
22:55 1014 29.94 844 24.92 19.5 67.1 38 5 40.9
23:00 1014 29.94 844 24.92 19.3 66.8 34 3.2 37.8
23:05 1015 29.97 844 24.92 19.3 66.8 33 3 37.4
23:10 1015 29.97 844 24.92 19.2 66.5 34 3 37.4
23:15 1015 29.97 844 24.92 18.8 65.8 38 4.3 39.8
23:20 1015 29.97 844 24.92 18.4 65.1 39 4.2 39.6
23:25 1015 29.97 844 24.92 17.9 64.1 39 3.8 38.8
23:30 1015 29.97 845 24.95 17.7 63.8 38 3.3 37.9
23:35 1015 29.97 845 24.95 17.7 63.9 36 2.7 36.8
23:40 1015 29.97 845 24.95 17.5 63.5 35 1.9 35.5
23:45 1015 29.97 845 24.95 17.2 63 36 2.1 35.8
23:50 1015 29.97 845 24.95 16.9 62.4 37 2.3 36.1
23:55 1015 29.97 845 24.95 16.6 61.8 38 2.2 36
24:00 1016 30 845 24.95 16.2 61.2 38 2.1 35.8